createdAt,value
2022-08-16T00:01:28.931Z,98378.41
2022-08-16T00:04:01.596Z,98380.25
2022-08-16T00:06:33.015Z,98385.41
2022-08-16T00:09:01.100Z,98384.22
2022-08-16T00:11:28.910Z,98390.16
2022-08-16T00:13:58.492Z,98387.03
2022-08-16T00:17:00.692Z,98386.25
2022-08-16T00:19:22.333Z,98376.91
2022-08-16T00:21:53.277Z,98389.97
2022-08-16T00:24:32.498Z,98389.72
2022-08-16T00:27:01.941Z,98388.91
2022-08-16T00:29:32.047Z,98386.03
2022-08-16T00:32:06.539Z,98390.19
2022-08-16T00:34:44.550Z,98385.47
2022-08-16T00:37:24.308Z,98384.22
2022-08-16T00:39:58.173Z,98378.41
2022-08-16T00:42:30.624Z,98378.31
2022-08-16T00:45:08.299Z,98384.50
2022-08-16T00:47:37.947Z,98381.50
2022-08-16T00:50:11.347Z,98391.50
2022-08-16T00:52:50.170Z,98385.81
2022-08-16T00:55:22.863Z,98398.19
2022-08-16T00:57:58.837Z,98393.66
2022-08-16T01:00:32.854Z,98395.53
2022-08-16T01:03:07.396Z,98383.13
2022-08-16T01:05:41.977Z,98392.97
2022-08-16T01:08:35.160Z,98394.47
2022-08-16T01:11:02.448Z,98395.56
2022-08-16T01:13:33.968Z,98398.81
2022-08-16T01:16:10.099Z,98397.00
2022-08-16T01:18:45.170Z,98399.28
2022-08-16T01:21:22.251Z,98398.50
2022-08-16T01:24:06.125Z,98398.94
2022-08-16T01:26:57.723Z,98402.72
2022-08-16T01:29:56.929Z,98387.47
2022-08-16T01:32:31.499Z,98390.06
2022-08-16T01:35:03.296Z,98399.22
2022-08-16T01:37:39.364Z,98398.63
2022-08-16T01:40:16.233Z,98402.06
2022-08-16T01:42:48.088Z,98401.84
2022-08-16T01:45:19.809Z,98399.94
2022-08-16T01:47:51.021Z,98395.03
2022-08-16T01:50:42.548Z,98405.53
2022-08-16T01:53:11.895Z,98396.59
2022-08-16T01:56:01.216Z,98393.97
2022-08-16T01:58:33.339Z,98402.31
2022-08-16T02:01:01.642Z,98406.63
2022-08-16T02:03:30.982Z,98403.38
2022-08-16T02:05:58.933Z,98406.16
2022-08-16T02:08:33.670Z,98398.53
2022-08-16T02:11:08.623Z,98402.47
2022-08-16T02:13:37.020Z,98409.59
2022-08-16T02:16:18.346Z,98400.75
2022-08-16T02:18:48.358Z,98404.19
2022-08-16T02:21:18.558Z,98410.50
2022-08-16T02:24:00.173Z,98405.72
2022-08-16T02:26:29.657Z,98410.75
2022-08-16T02:29:02.696Z,98396.47
2022-08-16T02:32:03.913Z,98405.53
2022-08-16T02:34:20.831Z,98402.28
2022-08-16T02:37:01.038Z,98408.16
2022-08-16T02:39:30.275Z,98408.03
2022-08-16T02:42:00.341Z,98407.59
2022-08-16T02:44:28.660Z,98410.19
2022-08-16T02:46:57.898Z,98405.13
2022-08-16T02:49:32.226Z,98402.81
2022-08-16T02:52:24.770Z,98405.22
2022-08-16T02:55:00.545Z,98408.16
2022-08-16T02:57:31.130Z,98401.16
2022-08-16T02:59:59.997Z,98404.19
2022-08-16T03:02:31.709Z,98396.09
2022-08-16T03:05:02.523Z,98389.47
2022-08-16T03:07:37.082Z,98399.69
2022-08-16T03:10:07.578Z,98390.00
2022-08-16T03:12:55.198Z,98390.91
2022-08-16T03:15:26.260Z,98394.97
2022-08-16T03:17:56.575Z,98394.38
2022-08-16T03:20:32.465Z,98396.34
2022-08-16T03:23:05.502Z,98397.47
2022-08-16T03:25:43.967Z,98394.38
2022-08-16T03:28:17.071Z,98392.16
2022-08-16T03:30:45.923Z,98392.38
2022-08-16T03:33:16.817Z,98389.16
2022-08-16T03:35:59.181Z,98389.31
2022-08-16T03:38:47.498Z,98389.34
2022-08-16T03:41:25.251Z,98387.78
2022-08-16T03:44:00.451Z,98383.97
2022-08-16T03:46:47.597Z,98392.81
2022-08-16T03:49:22.685Z,98396.00
2022-08-16T03:51:53.375Z,98401.69
2022-08-16T03:54:25.672Z,98401.66
2022-08-16T03:56:58.609Z,98399.56
2022-08-16T03:59:32.426Z,98389.44
2022-08-16T04:02:12.609Z,98399.66
2022-08-16T04:04:51.922Z,98401.03
2022-08-16T04:07:20.065Z,98400.63
2022-08-16T04:09:49.194Z,98393.94
2022-08-16T04:12:53.292Z,98394.22
2022-08-16T04:15:11.318Z,98396.72
2022-08-16T04:17:49.114Z,98402.38
2022-08-16T04:20:31.104Z,98402.63
2022-08-16T04:23:05.318Z,98406.91
2022-08-16T04:25:35.257Z,98413.44
2022-08-16T04:28:51.870Z,98418.28
2022-08-16T04:30:53.810Z,98426.78
2022-08-16T04:33:27.077Z,98424.81
2022-08-16T04:35:58.381Z,98424.81
2022-08-16T04:38:27.693Z,98421.03
2022-08-16T04:40:58.829Z,98414.69
2022-08-16T04:43:28.359Z,98418.91
2022-08-16T04:46:00.789Z,98423.25
2022-08-16T04:48:33.881Z,98422.44
2022-08-16T04:51:11.817Z,98429.94
2022-08-16T04:53:48.771Z,98434.13
2022-08-16T04:56:19.891Z,98441.88
2022-08-16T04:58:48.846Z,98441.59
2022-08-16T05:01:19.566Z,98439.66
2022-08-16T05:04:01.064Z,98445.41
2022-08-16T05:06:44.697Z,98446.84
2022-08-16T05:09:22.904Z,98448.72
2022-08-16T05:11:53.078Z,98450.28
2022-08-16T05:14:45.832Z,98446.28
2022-08-16T05:17:18.941Z,98447.84
2022-08-16T05:19:58.032Z,98446.19
2022-08-16T05:22:40.367Z,98457.25
2022-08-16T05:25:15.788Z,98455.28
2022-08-16T05:27:48.238Z,98454.06
2022-08-16T05:30:34.401Z,98458.59
2022-08-16T05:33:09.105Z,98456.72
2022-08-16T05:35:55.261Z,98452.84
2022-08-16T05:38:39.293Z,98458.09
2022-08-16T05:41:13.982Z,98453.91
2022-08-16T05:43:46.784Z,98464.25
2022-08-16T05:46:30.946Z,98471.44
2022-08-16T05:49:22.365Z,98468.53
2022-08-16T05:51:55.679Z,98467.81
2022-08-16T05:54:25.838Z,98468.28
2022-08-16T05:56:57.946Z,98473.28
2022-08-16T05:59:28.065Z,98470.53
2022-08-16T06:01:57.715Z,98472.84
2022-08-16T06:04:37.445Z,98477.41
2022-08-16T06:07:24.255Z,98487.28
2022-08-16T06:10:06.021Z,98485.47
2022-08-16T06:12:36.103Z,98493.84
2022-08-16T06:15:10.304Z,98494.34
2022-08-16T06:17:43.810Z,98480.88
2022-08-16T06:20:23.634Z,98485.13
2022-08-16T06:22:58.872Z,98481.91
2022-08-16T06:25:42.035Z,98481.25
2022-08-16T06:28:16.606Z,98484.59
2022-08-16T06:30:45.841Z,98480.38
2022-08-16T06:33:19.507Z,98481.72
2022-08-16T06:35:49.819Z,98485.34
2022-08-16T06:38:32.670Z,98487.78
2022-08-16T06:41:06.637Z,98487.84
2022-08-16T06:43:42.711Z,98490.66
2022-08-16T06:46:32.095Z,98506.66
2022-08-16T06:49:05.943Z,98500.81
2022-08-16T06:51:48.409Z,98492.53
2022-08-16T06:54:22.969Z,98483.75
2022-08-16T06:56:55.268Z,98486.78
2022-08-16T06:59:25.598Z,98488.88
2022-08-16T07:01:58.464Z,98493.44
2022-08-16T07:04:32.570Z,98488.97
2022-08-16T07:07:09.817Z,98495.22
2022-08-16T07:09:39.669Z,98494.13
2022-08-16T07:12:09.849Z,98491.66
2022-08-16T07:14:42.224Z,98491.25
2022-08-16T07:17:13.733Z,98489.91
2022-08-16T07:20:03.260Z,98491.44
2022-08-16T07:22:59.177Z,98491.31
2022-08-16T07:25:40.482Z,98499.50
2022-08-16T07:28:12.125Z,98502.34
2022-08-16T07:30:49.596Z,98491.41
2022-08-16T07:33:51.459Z,98490.81
2022-08-16T07:36:24.330Z,98494.13
2022-08-16T07:38:54.743Z,98493.47
2022-08-16T07:41:23.913Z,98489.38
2022-08-16T07:43:59.869Z,98488.75
2022-08-16T07:46:39.693Z,98489.00
2022-08-16T07:49:18.213Z,98486.38
2022-08-16T07:51:46.591Z,98485.00
2022-08-16T07:54:21.390Z,98493.16
2022-08-16T07:57:11.304Z,98500.97
2022-08-16T07:59:45.512Z,98496.63
2022-08-16T08:02:19.851Z,98505.38
2022-08-16T08:04:49.071Z,98499.50
2022-08-16T08:07:17.551Z,98507.28
2022-08-16T08:09:47.525Z,98510.03
2022-08-16T08:12:32.533Z,98498.97
2022-08-16T08:15:09.560Z,98501.16
2022-08-16T08:17:43.198Z,98496.09
2022-08-16T08:20:26.251Z,98509.44
2022-08-16T08:23:00.601Z,98513.81
2022-08-16T08:25:54.061Z,98508.72
2022-08-16T08:28:20.626Z,98506.81
2022-08-16T08:31:02.698Z,98512.28
2022-08-16T08:33:34.910Z,98500.00
2022-08-16T08:36:07.586Z,98507.31
2022-08-16T08:38:44.888Z,98504.25
2022-08-16T08:41:18.924Z,98505.03
2022-08-16T08:43:51.562Z,98512.75
2022-08-16T08:46:22.024Z,98508.22
2022-08-16T08:49:02.173Z,98510.91
2022-08-16T08:51:38.305Z,98517.53
2022-08-16T08:54:14.388Z,98504.72
2022-08-16T08:56:51.695Z,98510.31
2022-08-16T08:59:47.003Z,98510.97
2022-08-16T09:02:16.600Z,98523.56
2022-08-16T09:04:52.658Z,98510.59
2022-08-16T09:07:23.802Z,98511.78
2022-08-16T09:10:06.099Z,98512.94
2022-08-16T09:12:38.892Z,98511.75
2022-08-16T09:15:13.523Z,98512.44
2022-08-16T09:17:53.503Z,98518.38
2022-08-16T09:20:29.353Z,98525.06
2022-08-16T09:22:58.829Z,98525.31
2022-08-16T09:25:34.217Z,98519.31
2022-08-16T09:28:09.231Z,98517.44
2022-08-16T09:30:44.092Z,98509.84
2022-08-16T09:33:15.195Z,98508.22
2022-08-16T09:35:45.955Z,98526.34
2022-08-16T09:38:31.511Z,98511.88
2022-08-16T09:41:01.912Z,98522.53
2022-08-16T09:43:59.098Z,98519.75
2022-08-16T09:46:48.698Z,98520.97
2022-08-16T09:49:09.355Z,98526.94
2022-08-16T09:51:40.076Z,98521.28
2022-08-16T09:54:10.670Z,98523.47
2022-08-16T09:56:52.395Z,98529.22
2022-08-16T09:59:25.242Z,98516.09
2022-08-16T10:01:54.493Z,98523.38
2022-08-16T10:04:31.225Z,98517.75
2022-08-16T10:07:15.098Z,98509.09
2022-08-16T10:09:53.645Z,98508.25
2022-08-16T10:12:42.686Z,98512.06
2022-08-16T10:15:15.429Z,98504.78
2022-08-16T10:18:01.521Z,98501.84
2022-08-16T10:20:34.583Z,98503.63
2022-08-16T10:23:07.287Z,98498.94
2022-08-16T10:27:18.137Z,98503.19
2022-08-16T10:28:28.922Z,98502.59
2022-08-16T10:30:59.827Z,98498.19
2022-08-16T10:33:29.242Z,98488.03
2022-08-16T10:36:03.324Z,98497.06
2022-08-16T10:38:36.669Z,98502.25
2022-08-16T10:41:06.948Z,98503.56
2022-08-16T10:43:36.216Z,98493.84
2022-08-16T10:46:39.636Z,98501.69
2022-08-16T10:48:56.073Z,98496.91
2022-08-16T10:51:33.709Z,98501.72
2022-08-16T10:54:29.544Z,98498.63
2022-08-16T10:56:58.550Z,98495.03
2022-08-16T10:59:38.222Z,98497.84
2022-08-16T11:02:57.835Z,98500.91
2022-08-16T11:05:06.693Z,98489.44
2022-08-16T11:07:51.567Z,98486.47
2022-08-16T11:19:05.591Z,98481.50
2022-08-16T11:22:39.707Z,98497.44
2022-08-16T11:24:41.852Z,98485.06
2022-08-16T11:27:23.421Z,98505.22
2022-08-16T11:29:55.293Z,98495.53
2022-08-16T11:32:31.012Z,98504.00
2022-08-16T11:35:15.909Z,98506.06
2022-08-16T11:40:38.793Z,98496.28
2022-08-16T11:43:10.183Z,98493.97
2022-08-16T11:45:39.498Z,98497.88
2022-08-16T11:48:10.949Z,98488.03
2022-08-16T11:50:40.111Z,98481.00
2022-08-16T11:53:08.599Z,98485.53
2022-08-16T11:55:54.886Z,98481.41
2022-08-16T11:59:06.916Z,98471.03
2022-08-16T12:01:55.481Z,98482.47
2022-08-16T12:04:23.296Z,98487.84
2022-08-16T12:06:54.602Z,98488.63
2022-08-16T12:09:24.019Z,98482.94
2022-08-16T12:11:53.511Z,98473.16
2022-08-16T12:14:22.933Z,98482.44
2022-08-16T12:16:55.114Z,98485.06
2022-08-16T12:19:35.353Z,98489.84
2022-08-16T12:22:18.915Z,98481.06
2022-08-16T12:24:51.898Z,98479.22
2022-08-16T12:27:23.232Z,98483.66
2022-08-16T12:29:52.227Z,98478.59
2022-08-16T12:32:37.453Z,98475.25
2022-08-16T12:35:09.683Z,98480.66
2022-08-16T12:37:39.858Z,98477.59
2022-08-16T12:40:23.872Z,98466.69
2022-08-16T12:42:54.638Z,98470.75
2022-08-16T12:45:28.504Z,98464.28
2022-08-16T12:51:03.088Z,98462.81
2022-08-16T12:53:34.668Z,98461.97
2022-08-16T12:56:11.333Z,98458.25
2022-08-16T12:58:48.733Z,98451.78
2022-08-16T13:01:22.848Z,98452.31
2022-08-16T13:04:03.489Z,98451.50
2022-08-16T13:06:39.992Z,98448.06
2022-08-16T13:09:20.862Z,98451.28
2022-08-16T13:12:00.369Z,98446.91
2022-08-16T13:14:34.375Z,98443.56
2022-08-16T13:17:03.849Z,98444.94
2022-08-16T13:20:03.307Z,98445.78
2022-08-16T13:22:21.956Z,98440.53
2022-08-16T13:24:51.516Z,98430.94
2022-08-16T13:27:20.864Z,98439.44
2022-08-16T13:30:11.370Z,98442.22
2022-08-16T13:32:56.170Z,98440.44
2022-08-16T13:35:25.250Z,98441.31
2022-08-16T13:37:53.220Z,98422.03
2022-08-16T13:40:24.143Z,98436.13
2022-08-16T13:42:53.325Z,98435.13
2022-08-16T13:45:21.651Z,98427.94
2022-08-16T13:47:52.888Z,98435.28
2022-08-16T13:50:31.202Z,98429.09
2022-08-16T13:53:09.668Z,98423.31
2022-08-16T13:55:38.961Z,98425.16
2022-08-16T13:58:35.794Z,98414.75
2022-08-16T14:00:57.699Z,98405.19
2022-08-16T14:03:27.306Z,98411.56
2022-08-16T14:05:58.577Z,98409.38
2022-08-16T14:08:27.381Z,98416.09
2022-08-16T14:10:56.917Z,98410.47
2022-08-16T14:13:25.320Z,98414.81
2022-08-16T14:15:53.292Z,98413.34
2022-08-16T14:18:21.233Z,98415.69
2022-08-16T14:20:51.252Z,98412.38
2022-08-16T14:23:21.816Z,98404.28
2022-08-16T14:25:54.102Z,98401.25
2022-08-16T14:28:26.243Z,98405.34
2022-08-16T14:30:54.431Z,98401.69
2022-08-16T14:33:22.573Z,98399.56
2022-08-16T14:35:51.006Z,98410.75
2022-08-16T14:38:24.027Z,98400.63
2022-08-16T14:40:55.238Z,98392.25
2022-08-16T14:43:29.711Z,98403.16
2022-08-16T14:45:59.088Z,98394.94
2022-08-16T14:48:27.169Z,98397.88
2022-08-16T14:50:55.398Z,98399.59
2022-08-16T14:53:25.688Z,98401.00
2022-08-16T14:55:54.476Z,98396.13
2022-08-16T14:58:34.728Z,98399.22
2022-08-16T15:01:10.156Z,98380.31
2022-08-16T15:03:38.301Z,98390.97
2022-08-16T15:06:13.265Z,98392.28
2022-08-16T15:08:43.642Z,98384.78
2022-08-16T15:11:13.776Z,98391.13
2022-08-16T15:13:41.986Z,98386.78
2022-08-16T15:16:11.320Z,98384.25
2022-08-16T15:18:40.227Z,98383.69
2022-08-16T15:21:08.955Z,98380.47
2022-08-16T15:23:37.109Z,98382.59
2022-08-16T15:26:09.475Z,98389.34
2022-08-16T15:28:38.305Z,98382.72
2022-08-16T15:31:09.222Z,98388.50
2022-08-16T15:33:42.727Z,98398.81
2022-08-16T15:36:18.044Z,98391.38
2022-08-16T15:39:01.969Z,98393.69
2022-08-16T15:42:11.106Z,98395.00
2022-08-16T15:44:51.962Z,98394.06
2022-08-16T15:47:25.787Z,98397.72
2022-08-16T15:49:56.093Z,98386.66
2022-08-16T15:52:30.123Z,98396.47
2022-08-16T15:54:59.591Z,98392.16
2022-08-16T15:57:30.290Z,98401.69
2022-08-16T16:00:26.722Z,98395.00
2022-08-16T16:03:02.118Z,98398.03
2022-08-16T16:05:31.335Z,98398.28
2022-08-16T16:08:12.232Z,98397.00
2022-08-16T16:10:43.238Z,98391.84
2022-08-16T16:13:12.638Z,98391.56
2022-08-16T16:15:42.897Z,98394.00
2022-08-16T16:18:12.194Z,98385.88
2022-08-16T16:20:46.560Z,98399.09
2022-08-16T16:23:17.016Z,98406.25
2022-08-16T16:25:46.200Z,98395.94
2022-08-16T16:29:08.784Z,98402.31
2022-08-16T16:31:05.774Z,98404.78
2022-08-16T16:33:38.364Z,98397.41
2022-08-16T16:36:11.466Z,98398.00
2022-08-16T16:38:45.248Z,98387.81
2022-08-16T16:41:16.584Z,98394.69
2022-08-16T16:43:45.871Z,98390.56
2022-08-16T16:46:40.371Z,98381.56
2022-08-16T16:49:05.842Z,98385.06
2022-08-16T16:51:40.719Z,98391.44
2022-08-16T16:54:12.834Z,98391.66
2022-08-16T16:56:46.022Z,98392.69
2022-08-16T16:59:18.265Z,98384.94
2022-08-16T17:01:57.662Z,98374.56
2022-08-16T17:04:31.786Z,98381.56
2022-08-16T17:07:02.595Z,98379.69
2022-08-16T17:09:30.993Z,98378.59
2022-08-16T17:11:59.509Z,98385.13
2022-08-16T17:14:33.889Z,98383.13
2022-08-16T17:17:06.559Z,98390.13
2022-08-16T17:19:41.142Z,98379.91
2022-08-16T17:22:14.368Z,98375.31
2022-08-16T17:24:44.900Z,98378.28
2022-08-16T17:27:18.097Z,98378.41
2022-08-16T17:29:47.519Z,98387.91
2022-08-16T17:32:33.636Z,98389.53
2022-08-16T17:35:13.980Z,98389.78
2022-08-16T17:37:51.548Z,98384.53
2022-08-16T17:40:41.042Z,98394.69
2022-08-16T17:43:13.631Z,98397.31
2022-08-16T17:45:42.712Z,98396.78
2022-08-16T17:48:11.181Z,98399.31
2022-08-16T17:50:39.725Z,98402.97
2022-08-16T17:53:09.077Z,98400.63
2022-08-16T17:55:39.285Z,98405.66
2022-08-16T17:58:22.685Z,98401.81
2022-08-16T18:00:54.067Z,98407.19
2022-08-16T18:04:08.790Z,98407.72
2022-08-16T18:06:18.655Z,98408.34
2022-08-16T18:09:00.327Z,98401.41
2022-08-16T18:11:40.696Z,98408.88
2022-08-16T18:14:10.489Z,98405.41
2022-08-16T18:16:40.387Z,98403.72
2022-08-16T18:19:08.258Z,98403.72
2022-08-16T18:21:53.651Z,98403.13
2022-08-16T18:24:24.694Z,98405.00
2022-08-16T18:26:52.661Z,98394.72
2022-08-16T18:29:21.227Z,98406.66
2022-08-16T18:31:50.918Z,98403.59
2022-08-16T18:34:20.571Z,98406.75
2022-08-16T18:36:48.578Z,98407.63
2022-08-16T18:39:16.623Z,98406.59
2022-08-16T18:41:47.720Z,98402.09
2022-08-16T18:44:25.686Z,98403.78
2022-08-16T18:46:54.931Z,98407.84
2022-08-16T18:49:23.559Z,98405.81
2022-08-16T18:51:51.689Z,98405.94
2022-08-16T18:54:19.474Z,98412.47
2022-08-16T18:56:57.519Z,98415.19
2022-08-16T18:59:27.713Z,98408.34
2022-08-16T19:02:00.507Z,98420.06
2022-08-16T19:04:49.027Z,98420.16
2022-08-16T19:07:31.114Z,98422.41
2022-08-16T19:10:00.856Z,98426.78
2022-08-16T19:12:38.619Z,98427.31
2022-08-16T19:15:13.813Z,98428.56
2022-08-16T19:17:42.669Z,98432.09
2022-08-16T19:20:12.420Z,98432.97
2022-08-16T19:25:47.156Z,98437.03
2022-08-16T19:28:50.829Z,98437.72
2022-08-16T19:31:13.133Z,98442.91
2022-08-16T19:33:53.255Z,98449.44
2022-08-16T19:36:30.984Z,98451.97
2022-08-16T19:39:04.213Z,98456.06
2022-08-16T19:41:34.489Z,98467.59
2022-08-16T19:44:04.383Z,98458.63
2022-08-16T19:46:32.524Z,98451.63
2022-08-16T19:49:00.579Z,98456.78
2022-08-16T19:51:28.947Z,98454.84
2022-08-16T19:53:56.937Z,98456.78
2022-08-16T19:56:26.662Z,98453.63
2022-08-16T20:01:45.253Z,98464.28
2022-08-16T20:04:13.601Z,98458.25
2022-08-16T20:06:41.574Z,98462.06
2022-08-16T20:09:10.463Z,98464.44
2022-08-16T20:11:42.847Z,98468.53
2022-08-16T20:14:10.664Z,98476.81
2022-08-16T20:16:38.862Z,98477.75
2022-08-16T20:19:08.387Z,98482.41
2022-08-16T20:21:36.355Z,98482.16
2022-08-16T20:24:31.949Z,98489.53
2022-08-16T20:26:52.455Z,98491.91
2022-08-16T20:29:20.574Z,98491.34
2022-08-16T20:31:48.414Z,98486.94
2022-08-16T20:34:17.607Z,98486.25
2022-08-16T20:36:45.570Z,98490.94
2022-08-16T20:39:14.291Z,98487.56
2022-08-16T20:41:43.185Z,98494.06
2022-08-16T20:44:11.886Z,98488.94
2022-08-16T20:46:40.129Z,98499.75
2022-08-16T20:49:09.219Z,98508.47
2022-08-16T20:51:49.442Z,98495.59
2022-08-16T20:54:19.190Z,98496.88
2022-08-16T20:56:47.174Z,98506.97
2022-08-16T20:59:15.029Z,98503.88
2022-08-16T21:01:47.149Z,98504.13
2022-08-16T21:04:18.786Z,98514.94
2022-08-16T21:06:53.544Z,98516.53
2022-08-16T21:09:23.312Z,98515.94
2022-08-16T21:11:53.353Z,98507.44
2022-08-16T21:14:21.362Z,98506.66
2022-08-16T21:16:49.371Z,98515.16
2022-08-16T21:19:17.176Z,98519.78
2022-08-16T21:21:45.074Z,98512.03
2022-08-16T21:24:14.942Z,98518.50
2022-08-16T21:26:47.430Z,98516.53
2022-08-16T21:29:24.961Z,98524.00
2022-08-16T21:31:53.173Z,98519.38
2022-08-16T21:34:20.964Z,98519.44
2022-08-16T21:36:49.950Z,98520.47
2022-08-16T21:39:19.151Z,98520.28
2022-08-16T21:41:47.183Z,98517.91
2022-08-16T21:44:15.074Z,98517.19
2022-08-16T21:46:42.852Z,98512.75
2022-08-16T21:49:10.666Z,98512.41
2022-08-16T21:51:38.718Z,98510.25
2022-08-16T21:54:06.891Z,98518.03
2022-08-16T21:56:36.041Z,98506.94
2022-08-16T21:59:10.697Z,98510.47
2022-08-16T22:01:41.596Z,98509.56
2022-08-16T22:04:38.494Z,98511.66
2022-08-16T22:06:58.763Z,98519.22
2022-08-16T22:09:26.621Z,98519.94
2022-08-16T22:11:56.053Z,98524.63
2022-08-16T22:14:23.862Z,98524.59
2022-08-16T22:16:52.003Z,98532.78
2022-08-16T22:19:19.766Z,98528.81
2022-08-16T22:21:47.789Z,98528.28
2022-08-16T22:24:15.958Z,98525.09
2022-08-16T22:26:43.895Z,98530.38
2022-08-16T22:29:15.028Z,98536.88
2022-08-16T22:31:44.282Z,98535.78
2022-08-16T22:34:12.633Z,98530.13
2022-08-16T22:36:40.936Z,98531.00
2022-08-16T22:39:11.818Z,98534.19
2022-08-16T22:41:43.344Z,98539.88
2022-08-16T22:44:11.500Z,98541.91
2022-08-16T22:46:41.192Z,98547.28
2022-08-16T22:49:09.440Z,98542.56
2022-08-16T22:51:38.926Z,98539.91
2022-08-16T22:54:34.373Z,98535.19
2022-08-16T22:56:56.469Z,98534.75
2022-08-16T22:59:25.305Z,98533.97
2022-08-16T23:01:54.892Z,98527.25
2022-08-16T23:04:24.794Z,98534.25
2022-08-16T23:06:53.065Z,98525.31
2022-08-16T23:09:21.653Z,98533.75
2022-08-16T23:11:49.411Z,98530.41
2022-08-16T23:14:17.937Z,98535.34
2022-08-16T23:16:47.250Z,98533.16
2022-08-16T23:19:17.347Z,98527.91
2022-08-16T23:21:48.341Z,98526.84
2022-08-16T23:24:19.293Z,98525.59
2022-08-16T23:26:49.066Z,98526.72
2022-08-16T23:29:24.667Z,98516.50
2022-08-16T23:31:56.100Z,98517.19
2022-08-16T23:34:27.073Z,98517.06
2022-08-16T23:36:55.248Z,98523.03
2022-08-16T23:39:23.206Z,98526.72
2022-08-16T23:41:51.937Z,98525.66
2022-08-16T23:44:56.225Z,98521.38
2022-08-16T23:47:07.844Z,98527.44
2022-08-16T23:49:56.773Z,98530.03
2022-08-16T23:52:42.142Z,98521.78
2022-08-16T23:55:13.026Z,98520.06
2022-08-16T23:57:40.873Z,98524.63
